sensor_id;sensor_type;location;lat;lon;timestamp;temperature;humidity
26254;DHT22;53339;51.378;0.094;2024-01-30T00:02:19;11.60;86.80
26254;DHT22;53339;51.378;0.094;2024-01-30T00:04:47;11.60;86.80
26254;DHT22;53339;51.378;0.094;2024-01-30T00:07:15;11.60;86.90
26254;DHT22;53339;51.378;0.094;2024-01-30T00:09:45;11.70;86.80
26254;DHT22;53339;51.378;0.094;2024-01-30T00:12:13;11.70;86.70
26254;DHT22;53339;51.378;0.094;2024-01-30T00:14:42;11.70;86.60
26254;DHT22;53339;51.378;0.094;2024-01-30T00:17:13;11.70;86.60
26254;DHT22;53339;51.378;0.094;2024-01-30T00:19:41;11.70;86.60
26254;DHT22;53339;51.378;0.094;2024-01-30T00:22:09;11.80;86.60
26254;DHT22;53339;51.378;0.094;2024-01-30T00:24:38;11.80;86.50
26254;DHT22;53339;51.378;0.094;2024-01-30T00:27:05;11.80;86.60
26254;DHT22;53339;51.378;0.094;2024-01-30T00:29:36;11.90;86.60
26254;DHT22;53339;51.378;0.094;2024-01-30T00:32:04;11.90;86.50
26254;DHT22;53339;51.378;0.094;2024-01-30T00:34:32;11.90;86.40
26254;DHT22;53339;51.378;0.094;2024-01-30T00:37:06;12.00;86.40
26254;DHT22;53339;51.378;0.094;2024-01-30T00:39:34;12.10;86.20
26254;DHT22;53339;51.378;0.094;2024-01-30T00:42:01;12.10;86.10
26254;DHT22;53339;51.378;0.094;2024-01-30T00:44:29;12.20;85.90
26254;DHT22;53339;51.378;0.094;2024-01-30T00:46:57;12.20;85.80
26254;DHT22;53339;51.378;0.094;2024-01-30T00:49:25;12.20;85.70
26254;DHT22;53339;51.378;0.094;2024-01-30T00:51:53;12.20;85.60
26254;DHT22;53339;51.378;0.094;2024-01-30T00:54:20;12.20;85.60
26254;DHT22;53339;51.378;0.094;2024-01-30T00:56:48;12.20;85.60
26254;DHT22;53339;51.378;0.094;2024-01-30T00:59:16;12.20;85.60
26254;DHT22;53339;51.378;0.094;2024-01-30T01:01:44;12.20;85.60
26254;DHT22;53339;51.378;0.094;2024-01-30T01:04:12;12.20;85.30
26254;DHT22;53339;51.378;0.094;2024-01-30T01:06:39;12.20;85.00
26254;DHT22;53339;51.378;0.094;2024-01-30T01:09:11;12.20;84.80
26254;DHT22;53339;51.378;0.094;2024-01-30T01:11:39;12.20;84.40
26254;DHT22;53339;51.378;0.094;2024-01-30T01:14:07;12.30;84.20
26254;DHT22;53339;51.378;0.094;2024-01-30T01:16:35;12.30;83.90
26254;DHT22;53339;51.378;0.094;2024-01-30T01:19:07;12.30;83.20
26254;DHT22;53339;51.378;0.094;2024-01-30T01:21:35;12.20;82.80
26254;DHT22;53339;51.378;0.094;2024-01-30T01:24:04;12.20;82.90
26254;DHT22;53339;51.378;0.094;2024-01-30T01:26:31;12.10;82.90
26254;DHT22;53339;51.378;0.094;2024-01-30T01:28:59;12.10;82.80
26254;DHT22;53339;51.378;0.094;2024-01-30T01:31:27;12.10;82.70
26254;DHT22;53339;51.378;0.094;2024-01-30T01:33:57;12.10;82.60
26254;DHT22;53339;51.378;0.094;2024-01-30T01:36:25;12.00;82.50
26254;DHT22;53339;51.378;0.094;2024-01-30T01:38:53;12.00;82.40
26254;DHT22;53339;51.378;0.094;2024-01-30T01:41:20;12.00;82.10
26254;DHT22;53339;51.378;0.094;2024-01-30T01:43:48;12.00;82.20
26254;DHT22;53339;51.378;0.094;2024-01-30T01:46:17;11.90;82.30
26254;DHT22;53339;51.378;0.094;2024-01-30T01:48:45;11.90;82.60
26254;DHT22;53339;51.378;0.094;2024-01-30T01:51:15;11.80;82.80
26254;DHT22;53339;51.378;0.094;2024-01-30T01:53:44;11.80;83.00
26254;DHT22;53339;51.378;0.094;2024-01-30T01:56:12;11.70;82.90
26254;DHT22;53339;51.378;0.094;2024-01-30T01:58:40;11.70;82.40
26254;DHT22;53339;51.378;0.094;2024-01-30T02:01:09;11.60;82.10
26254;DHT22;53339;51.378;0.094;2024-01-30T02:03:37;11.60;81.60
26254;DHT22;53339;51.378;0.094;2024-01-30T02:06:05;11.60;81.60
26254;DHT22;53339;51.378;0.094;2024-01-30T02:08:33;11.50;81.80
26254;DHT22;53339;51.378;0.094;2024-01-30T02:11:01;11.40;81.90
26254;DHT22;53339;51.378;0.094;2024-01-30T02:13:29;11.30;81.80
26254;DHT22;53339;51.378;0.094;2024-01-30T02:15:56;11.20;81.90
26254;DHT22;53339;51.378;0.094;2024-01-30T02:18:24;11.20;82.10
26254;DHT22;53339;51.378;0.094;2024-01-30T02:21:12;11.10;81.80
26254;DHT22;53339;51.378;0.094;2024-01-30T02:23:41;11.10;81.60
26254;DHT22;53339;51.378;0.094;2024-01-30T02:26:10;11.10;81.60
26254;DHT22;53339;51.378;0.094;2024-01-30T02:28:39;11.00;81.70
26254;DHT22;53339;51.378;0.094;2024-01-30T02:31:07;10.90;81.70
26254;DHT22;53339;51.378;0.094;2024-01-30T02:33:35;10.90;81.80
26254;DHT22;53339;51.378;0.094;2024-01-30T02:36:03;10.80;82.00
26254;DHT22;53339;51.378;0.094;2024-01-30T02:38:31;10.70;82.20
26254;DHT22;53339;51.378;0.094;2024-01-30T02:40:59;10.70;82.40
26254;DHT22;53339;51.378;0.094;2024-01-30T02:43:27;10.70;82.60
26254;DHT22;53339;51.378;0.094;2024-01-30T02:45:55;10.60;82.70
26254;DHT22;53339;51.378;0.094;2024-01-30T02:48:23;10.60;82.90
26254;DHT22;53339;51.378;0.094;2024-01-30T02:50:50;10.50;83.00
26254;DHT22;53339;51.378;0.094;2024-01-30T02:53:18;10.50;83.10
26254;DHT22;53339;51.378;0.094;2024-01-30T02:55:46;10.50;83.30
26254;DHT22;53339;51.378;0.094;2024-01-30T02:58:14;10.40;83.50
26254;DHT22;53339;51.378;0.094;2024-01-30T03:00:41;10.40;83.60
26254;DHT22;53339;51.378;0.094;2024-01-30T03:03:09;10.40;83.70
26254;DHT22;53339;51.378;0.094;2024-01-30T03:05:37;10.40;83.80
26254;DHT22;53339;51.378;0.094;2024-01-30T03:08:05;10.40;84.00
26254;DHT22;53339;51.378;0.094;2024-01-30T03:10:33;10.40;84.10
26254;DHT22;53339;51.378;0.094;2024-01-30T03:13:01;10.30;84.10
26254;DHT22;53339;51.378;0.094;2024-01-30T03:15:29;10.30;84.20
26254;DHT22;53339;51.378;0.094;2024-01-30T03:17:57;10.30;84.30
26254;DHT22;53339;51.378;0.094;2024-01-30T03:20:25;10.30;84.40
26254;DHT22;53339;51.378;0.094;2024-01-30T03:22:55;10.30;84.40
26254;DHT22;53339;51.378;0.094;2024-01-30T03:25:23;10.30;84.50
26254;DHT22;53339;51.378;0.094;2024-01-30T03:30:51;10.30;84.60
26254;DHT22;53339;51.378;0.094;2024-01-30T03:33:19;10.20;84.60
26254;DHT22;53339;51.378;0.094;2024-01-30T03:35:47;10.20;84.60
26254;DHT22;53339;51.378;0.094;2024-01-30T03:38:15;10.20;84.60
26254;DHT22;53339;51.378;0.094;2024-01-30T03:40:43;10.20;84.60
26254;DHT22;53339;51.378;0.094;2024-01-30T03:43:11;10.20;84.70
26254;DHT22;53339;51.378;0.094;2024-01-30T03:45:38;10.10;84.70
26254;DHT22;53339;51.378;0.094;2024-01-30T03:48:06;10.10;84.70
26254;DHT22;53339;51.378;0.094;2024-01-30T03:50:34;10.10;84.80
26254;DHT22;53339;51.378;0.094;2024-01-30T03:53:02;10.10;84.90
26254;DHT22;53339;51.378;0.094;2024-01-30T03:55:30;10.00;85.00
26254;DHT22;53339;51.378;0.094;2024-01-30T03:58:00;10.00;85.10
26254;DHT22;53339;51.378;0.094;2024-01-30T04:00:29;9.90;85.30
26254;DHT22;53339;51.378;0.094;2024-01-30T04:02:57;9.90;85.40
26254;DHT22;53339;51.378;0.094;2024-01-30T04:05:25;9.90;85.40
26254;DHT22;53339;51.378;0.094;2024-01-30T04:07:52;9.90;85.50
26254;DHT22;53339;51.378;0.094;2024-01-30T04:10:20;9.90;85.50
26254;DHT22;53339;51.378;0.094;2024-01-30T04:12:48;9.80;85.60
26254;DHT22;53339;51.378;0.094;2024-01-30T04:15:16;9.80;85.70
26254;DHT22;53339;51.378;0.094;2024-01-30T04:17:44;9.80;85.80
26254;DHT22;53339;51.378;0.094;2024-01-30T04:20:14;9.70;85.90
26254;DHT22;53339;51.378;0.094;2024-01-30T04:22:44;9.80;85.80
26254;DHT22;53339;51.378;0.094;2024-01-30T04:25:15;9.70;85.70
26254;DHT22;53339;51.378;0.094;2024-01-30T04:27:43;9.70;85.70
26254;DHT22;53339;51.378;0.094;2024-01-30T04:30:11;9.70;85.70
26254;DHT22;53339;51.378;0.094;2024-01-30T04:32:39;9.70;85.70
26254;DHT22;53339;51.378;0.094;2024-01-30T04:35:07;9.70;85.80
26254;DHT22;53339;51.378;0.094;2024-01-30T04:37:37;9.60;85.90
26254;DHT22;53339;51.378;0.094;2024-01-30T04:40:06;9.60;86.00
26254;DHT22;53339;51.378;0.094;2024-01-30T04:42:34;9.60;86.10
26254;DHT22;53339;51.378;0.094;2024-01-30T04:45:02;9.60;86.20
26254;DHT22;53339;51.378;0.094;2024-01-30T04:47:30;9.50;86.40
26254;DHT22;53339;51.378;0.094;2024-01-30T04:50:01;9.50;86.60
26254;DHT22;53339;51.378;0.094;2024-01-30T04:52:30;9.50;86.70
26254;DHT22;53339;51.378;0.094;2024-01-30T04:54:58;9.50;86.80
26254;DHT22;53339;51.378;0.094;2024-01-30T04:57:26;9.50;87.00
26254;DHT22;53339;51.378;0.094;2024-01-30T04:59:54;9.50;87.10
26254;DHT22;53339;51.378;0.094;2024-01-30T05:02:21;9.40;87.20
26254;DHT22;53339;51.378;0.094;2024-01-30T05:04:49;9.40;87.30
26254;DHT22;53339;51.378;0.094;2024-01-30T05:07:17;9.40;87.40
26254;DHT22;53339;51.378;0.094;2024-01-30T05:09:46;9.40;87.50
26254;DHT22;53339;51.378;0.094;2024-01-30T05:12:14;9.40;87.50
26254;DHT22;53339;51.378;0.094;2024-01-30T05:14:42;9.40;87.60
26254;DHT22;53339;51.378;0.094;2024-01-30T05:17:13;9.40;87.70
26254;DHT22;53339;51.378;0.094;2024-01-30T05:19:42;9.40;87.80
26254;DHT22;53339;51.378;0.094;2024-01-30T05:22:10;9.40;87.80
26254;DHT22;53339;51.378;0.094;2024-01-30T05:24:38;9.50;87.80
26254;DHT22;53339;51.378;0.094;2024-01-30T05:27:06;9.50;87.80
26254;DHT22;53339;51.378;0.094;2024-01-30T05:29:33;9.50;87.80
26254;DHT22;53339;51.378;0.094;2024-01-30T05:32:02;9.50;87.80
26254;DHT22;53339;51.378;0.094;2024-01-30T05:34:30;9.50;87.80
26254;DHT22;53339;51.378;0.094;2024-01-30T05:36:58;9.50;87.90
26254;DHT22;53339;51.378;0.094;2024-01-30T05:39:26;9.50;87.90
26254;DHT22;53339;51.378;0.094;2024-01-30T05:41:54;9.50;87.90
26254;DHT22;53339;51.378;0.094;2024-01-30T05:44:22;9.40;88.00
26254;DHT22;53339;51.378;0.094;2024-01-30T05:46:50;9.50;88.00
26254;DHT22;53339;51.378;0.094;2024-01-30T05:49:17;9.50;88.10
26254;DHT22;53339;51.378;0.094;2024-01-30T05:51:45;9.50;88.10
26254;DHT22;53339;51.378;0.094;2024-01-30T05:54:13;9.40;88.10
26254;DHT22;53339;51.378;0.094;2024-01-30T05:56:43;9.40;88.00
26254;DHT22;53339;51.378;0.094;2024-01-30T05:59:11;9.40;87.70
26254;DHT22;53339;51.378;0.094;2024-01-30T06:01:51;9.40;87.50
26254;DHT22;53339;51.378;0.094;2024-01-30T06:04:19;9.40;87.30
26254;DHT22;53339;51.378;0.094;2024-01-30T06:06:46;9.40;86.80
26254;DHT22;53339;51.378;0.094;2024-01-30T06:09:14;9.40;86.10
26254;DHT22;53339;51.378;0.094;2024-01-30T06:11:42;9.40;85.40
26254;DHT22;53339;51.378;0.094;2024-01-30T06:14:10;9.40;84.90
26254;DHT22;53339;51.378;0.094;2024-01-30T06:16:38;9.40;84.40
26254;DHT22;53339;51.378;0.094;2024-01-30T06:19:06;9.30;84.10
26254;DHT22;53339;51.378;0.094;2024-01-30T06:21:34;9.30;84.10
26254;DHT22;53339;51.378;0.094;2024-01-30T06:24:04;9.30;84.10
26254;DHT22;53339;51.378;0.094;2024-01-30T06:26:33;9.30;84.00
26254;DHT22;53339;51.378;0.094;2024-01-30T06:29:01;9.30;83.90
26254;DHT22;53339;51.378;0.094;2024-01-30T06:31:29;9.30;83.90
26254;DHT22;53339;51.378;0.094;2024-01-30T06:33:57;9.20;83.80
26254;DHT22;53339;51.378;0.094;2024-01-30T06:36:25;9.30;83.70
26254;DHT22;53339;51.378;0.094;2024-01-30T06:38:53;9.20;83.60
26254;DHT22;53339;51.378;0.094;2024-01-30T06:41:24;9.10;83.50
26254;DHT22;53339;51.378;0.094;2024-01-30T06:43:52;9.00;83.50
26254;DHT22;53339;51.378;0.094;2024-01-30T06:46:20;8.80;83.80
26254;DHT22;53339;51.378;0.094;2024-01-30T06:48:48;8.70;84.20
26254;DHT22;53339;51.378;0.094;2024-01-30T06:51:16;8.60;84.40
26254;DHT22;53339;51.378;0.094;2024-01-30T06:53:44;8.50;84.60
26254;DHT22;53339;51.378;0.094;2024-01-30T06:56:12;8.50;84.70
26254;DHT22;53339;51.378;0.094;2024-01-30T06:58:40;8.50;84.60
26254;DHT22;53339;51.378;0.094;2024-01-30T07:01:08;8.60;84.00
26254;DHT22;53339;51.378;0.094;2024-01-30T07:03:36;8.60;83.80
26254;DHT22;53339;51.378;0.094;2024-01-30T07:06:07;8.60;83.50
26254;DHT22;53339;51.378;0.094;2024-01-30T07:08:35;8.60;83.30
26254;DHT22;53339;51.378;0.094;2024-01-30T07:11:02;8.60;83.20
26254;DHT22;53339;51.378;0.094;2024-01-30T07:13:30;8.60;83.00
26254;DHT22;53339;51.378;0.094;2024-01-30T07:15:58;8.60;82.90
26254;DHT22;53339;51.378;0.094;2024-01-30T07:18:26;8.60;82.80
26254;DHT22;53339;51.378;0.094;2024-01-30T07:20:53;8.60;83.00
26254;DHT22;53339;51.378;0.094;2024-01-30T07:23:21;8.60;83.10
26254;DHT22;53339;51.378;0.094;2024-01-30T07:25:50;8.50;83.00
26254;DHT22;53339;51.378;0.094;2024-01-30T07:28:18;8.50;82.90
26254;DHT22;53339;51.378;0.094;2024-01-30T07:30:46;8.50;82.80
26254;DHT22;53339;51.378;0.094;2024-01-30T07:33:15;8.50;82.80
26254;DHT22;53339;51.378;0.094;2024-01-30T07:35:44;8.40;82.60
26254;DHT22;53339;51.378;0.094;2024-01-30T07:38:12;8.40;82.80
26254;DHT22;53339;51.378;0.094;2024-01-30T07:40:40;8.40;82.90
26254;DHT22;53339;51.378;0.094;2024-01-30T07:43:08;8.40;82.70
26254;DHT22;53339;51.378;0.094;2024-01-30T07:45:36;8.40;82.80
26254;DHT22;53339;51.378;0.094;2024-01-30T07:48:06;8.40;82.70
26254;DHT22;53339;51.378;0.094;2024-01-30T07:50:33;8.40;82.60
26254;DHT22;53339;51.378;0.094;2024-01-30T07:53:02;8.30;82.50
26254;DHT22;53339;51.378;0.094;2024-01-30T07:55:29;8.40;82.50
26254;DHT22;53339;51.378;0.094;2024-01-30T07:57:59;8.40;82.50
26254;DHT22;53339;51.378;0.094;2024-01-30T08:00:27;8.40;82.50
26254;DHT22;53339;51.378;0.094;2024-01-30T08:02:56;8.30;82.40
26254;DHT22;53339;51.378;0.094;2024-01-30T08:05:24;8.40;82.30
26254;DHT22;53339;51.378;0.094;2024-01-30T08:07:52;8.40;82.20
26254;DHT22;53339;51.378;0.094;2024-01-30T08:10:20;8.40;81.90
26254;DHT22;53339;51.378;0.094;2024-01-30T08:12:48;8.40;81.70
26254;DHT22;53339;51.378;0.094;2024-01-30T08:15:16;8.40;81.70
26254;DHT22;53339;51.378;0.094;2024-01-30T08:17:44;8.40;81.80
26254;DHT22;53339;51.378;0.094;2024-01-30T08:20:12;8.40;81.60
26254;DHT22;53339;51.378;0.094;2024-01-30T08:22:44;8.40;81.60
26254;DHT22;53339;51.378;0.094;2024-01-30T08:25:11;8.40;81.60
26254;DHT22;53339;51.378;0.094;2024-01-30T08:27:39;8.40;81.60
26254;DHT22;53339;51.378;0.094;2024-01-30T08:30:07;8.40;81.50
26254;DHT22;53339;51.378;0.094;2024-01-30T08:32:35;8.40;81.10
26254;DHT22;53339;51.378;0.094;2024-01-30T08:35:03;8.40;81.30
26254;DHT22;53339;51.378;0.094;2024-01-30T08:37:31;8.40;81.30
26254;DHT22;53339;51.378;0.094;2024-01-30T08:39:59;8.40;81.20
26254;DHT22;53339;51.378;0.094;2024-01-30T08:42:27;8.40;81.00
26254;DHT22;53339;51.378;0.094;2024-01-30T08:44:55;8.40;80.80
26254;DHT22;53339;51.378;0.094;2024-01-30T08:47:25;8.40;80.60
26254;DHT22;53339;51.378;0.094;2024-01-30T08:49:53;8.40;80.50
26254;DHT22;53339;51.378;0.094;2024-01-30T08:52:22;8.50;80.30
26254;DHT22;53339;51.378;0.094;2024-01-30T08:54:50;8.50;80.20
26254;DHT22;53339;51.378;0.094;2024-01-30T08:57:18;8.50;80.30
26254;DHT22;53339;51.378;0.094;2024-01-30T08:59:46;8.50;80.30
26254;DHT22;53339;51.378;0.094;2024-01-30T09:02:14;8.50;80.30
26254;DHT22;53339;51.378;0.094;2024-01-30T09:04:43;8.50;80.20
26254;DHT22;53339;51.378;0.094;2024-01-30T09:07:11;8.50;80.10
26254;DHT22;53339;51.378;0.094;2024-01-30T09:09:41;8.50;80.00
26254;DHT22;53339;51.378;0.094;2024-01-30T09:12:09;8.50;80.20
26254;DHT22;53339;51.378;0.094;2024-01-30T09:14:39;8.50;80.10
26254;DHT22;53339;51.378;0.094;2024-01-30T09:17:08;8.60;79.90
26254;DHT22;53339;51.378;0.094;2024-01-30T09:19:36;8.60;79.90
26254;DHT22;53339;51.378;0.094;2024-01-30T09:22:04;8.60;79.80
26254;DHT22;53339;51.378;0.094;2024-01-30T09:24:32;8.60;79.90
26254;DHT22;53339;51.378;0.094;2024-01-30T09:26:59;8.60;79.60
26254;DHT22;53339;51.378;0.094;2024-01-30T09:29:27;8.60;79.50
26254;DHT22;53339;51.378;0.094;2024-01-30T09:31:54;8.60;79.40
26254;DHT22;53339;51.378;0.094;2024-01-30T09:34:22;8.70;79.40
26254;DHT22;53339;51.378;0.094;2024-01-30T09:36:50;8.70;79.20
26254;DHT22;53339;51.378;0.094;2024-01-30T09:39:17;8.70;79.30
26254;DHT22;53339;51.378;0.094;2024-01-30T09:42:05;8.70;79.20
26254;DHT22;53339;51.378;0.094;2024-01-30T09:44:35;8.70;79.10
26254;DHT22;53339;51.378;0.094;2024-01-30T09:47:04;8.70;78.70
26254;DHT22;53339;51.378;0.094;2024-01-30T09:49:34;8.70;78.80
26254;DHT22;53339;51.378;0.094;2024-01-30T09:52:03;8.70;78.80
26254;DHT22;53339;51.378;0.094;2024-01-30T09:54:31;8.80;78.50
26254;DHT22;53339;51.378;0.094;2024-01-30T09:57:01;8.80;78.30
26254;DHT22;53339;51.378;0.094;2024-01-30T09:59:29;8.80;78.30
26254;DHT22;53339;51.378;0.094;2024-01-30T10:01:57;8.80;78.20
26254;DHT22;53339;51.378;0.094;2024-01-30T10:04:25;8.80;78.10
26254;DHT22;53339;51.378;0.094;2024-01-30T10:06:55;8.90;78.30
26254;DHT22;53339;51.378;0.094;2024-01-30T10:09:23;9.00;78.10
26254;DHT22;53339;51.378;0.094;2024-01-30T10:11:51;9.00;78.00
26254;DHT22;53339;51.378;0.094;2024-01-30T10:14:19;9.00;78.00
26254;DHT22;53339;51.378;0.094;2024-01-30T10:16:47;8.90;78.10
26254;DHT22;53339;51.378;0.094;2024-01-30T10:19:15;8.90;78.00
26254;DHT22;53339;51.378;0.094;2024-01-30T10:21:42;8.90;78.00
26254;DHT22;53339;51.378;0.094;2024-01-30T10:24:10;8.90;78.00
26254;DHT22;53339;51.378;0.094;2024-01-30T10:26:40;9.00;78.20
26254;DHT22;53339;51.378;0.094;2024-01-30T10:29:07;9.00;78.30
26254;DHT22;53339;51.378;0.094;2024-01-30T10:31:35;9.00;78.30
26254;DHT22;53339;51.378;0.094;2024-01-30T10:34:03;9.00;77.80
26254;DHT22;53339;51.378;0.094;2024-01-30T10:36:39;9.00;77.80
26254;DHT22;53339;51.378;0.094;2024-01-30T10:39:11;9.00;77.80
26254;DHT22;53339;51.378;0.094;2024-01-30T10:41:43;9.00;77.50
26254;DHT22;53339;51.378;0.094;2024-01-30T10:44:11;8.90;77.50
26254;DHT22;53339;51.378;0.094;2024-01-30T10:46:45;9.00;77.60
26254;DHT22;53339;51.378;0.094;2024-01-30T10:49:18;9.00;77.60
26254;DHT22;53339;51.378;0.094;2024-01-30T10:51:47;9.00;77.80
26254;DHT22;53339;51.378;0.094;2024-01-30T10:54:16;9.10;77.70
26254;DHT22;53339;51.378;0.094;2024-01-30T10:56:45;9.10;77.50
26254;DHT22;53339;51.378;0.094;2024-01-30T10:59:13;9.10;77.30
26254;DHT22;53339;51.378;0.094;2024-01-30T11:01:42;9.10;77.30
26254;DHT22;53339;51.378;0.094;2024-01-30T11:04:10;9.10;76.90
26254;DHT22;53339;51.378;0.094;2024-01-30T11:06:41;9.10;77.00
26254;DHT22;53339;51.378;0.094;2024-01-30T11:09:12;9.10;77.20
26254;DHT22;53339;51.378;0.094;2024-01-30T11:11:58;9.10;77.00
26254;DHT22;53339;51.378;0.094;2024-01-30T11:14:30;9.10;76.60
26254;DHT22;53339;51.378;0.094;2024-01-30T11:16:58;9.10;76.90
26254;DHT22;53339;51.378;0.094;2024-01-30T11:19:27;9.10;76.50
26254;DHT22;53339;51.378;0.094;2024-01-30T11:21:58;9.10;75.90
26254;DHT22;53339;51.378;0.094;2024-01-30T11:24:25;9.20;75.50
26254;DHT22;53339;51.378;0.094;2024-01-30T11:26:57;9.20;75.50
26254;DHT22;53339;51.378;0.094;2024-01-30T11:29:35;9.20;75.00
26254;DHT22;53339;51.378;0.094;2024-01-30T11:32:03;9.10;74.70
26254;DHT22;53339;51.378;0.094;2024-01-30T11:34:35;9.10;74.70
26254;DHT22;53339;51.378;0.094;2024-01-30T11:37:10;9.10;74.60
26254;DHT22;53339;51.378;0.094;2024-01-30T11:39:39;9.10;74.20
26254;DHT22;53339;51.378;0.094;2024-01-30T11:42:09;9.00;74.20
26254;DHT22;53339;51.378;0.094;2024-01-30T11:44:36;9.00;74.50
26254;DHT22;53339;51.378;0.094;2024-01-30T11:47:04;9.00;74.60
26254;DHT22;53339;51.378;0.094;2024-01-30T11:49:31;8.90;74.70
26254;DHT22;53339;51.378;0.094;2024-01-30T11:51:59;8.90;74.70
26254;DHT22;53339;51.378;0.094;2024-01-30T11:54:27;8.90;74.90
26254;DHT22;53339;51.378;0.094;2024-01-30T11:56:55;8.80;74.90
26254;DHT22;53339;51.378;0.094;2024-01-30T11:59:22;8.80;75.10
26254;DHT22;53339;51.378;0.094;2024-01-30T12:01:51;8.80;74.70
26254;DHT22;53339;51.378;0.094;2024-01-30T12:04:19;8.80;74.50
26254;DHT22;53339;51.378;0.094;2024-01-30T12:06:51;8.80;74.70
26254;DHT22;53339;51.378;0.094;2024-01-30T12:09:18;8.80;74.30
26254;DHT22;53339;51.378;0.094;2024-01-30T12:11:47;8.80;74.20
26254;DHT22;53339;51.378;0.094;2024-01-30T12:14:16;8.70;74.30
26254;DHT22;53339;51.378;0.094;2024-01-30T12:16:48;8.80;74.60
26254;DHT22;53339;51.378;0.094;2024-01-30T12:19:24;8.70;73.80
26254;DHT22;53339;51.378;0.094;2024-01-30T12:21:58;8.70;73.90
26254;DHT22;53339;51.378;0.094;2024-01-30T12:24:30;8.70;74.10
26254;DHT22;53339;51.378;0.094;2024-01-30T12:26:59;8.70;73.90
26254;DHT22;53339;51.378;0.094;2024-01-30T12:29:26;8.70;73.90
26254;DHT22;53339;51.378;0.094;2024-01-30T12:32:00;8.70;73.80
26254;DHT22;53339;51.378;0.094;2024-01-30T12:34:27;8.70;74.10
26254;DHT22;53339;51.378;0.094;2024-01-30T12:36:55;8.70;74.10
26254;DHT22;53339;51.378;0.094;2024-01-30T12:39:23;8.70;73.90
26254;DHT22;53339;51.378;0.094;2024-01-30T12:41:51;8.70;74.10
26254;DHT22;53339;51.378;0.094;2024-01-30T12:44:19;8.70;74.20
26254;DHT22;53339;51.378;0.094;2024-01-30T12:46:47;8.70;74.00
26254;DHT22;53339;51.378;0.094;2024-01-30T12:49:15;8.70;74.20
26254;DHT22;53339;51.378;0.094;2024-01-30T12:51:43;8.70;74.30
26254;DHT22;53339;51.378;0.094;2024-01-30T12:54:12;8.70;74.10
26254;DHT22;53339;51.378;0.094;2024-01-30T12:56:40;8.60;74.00
26254;DHT22;53339;51.378;0.094;2024-01-30T12:59:08;8.70;74.10
26254;DHT22;53339;51.378;0.094;2024-01-30T13:01:36;8.70;74.10
26254;DHT22;53339;51.378;0.094;2024-01-30T13:04:03;8.60;74.30
26254;DHT22;53339;51.378;0.094;2024-01-30T13:06:31;8.70;74.60
26254;DHT22;53339;51.378;0.094;2024-01-30T13:08:59;8.70;74.70
26254;DHT22;53339;51.378;0.094;2024-01-30T13:11:26;8.70;74.80
26254;DHT22;53339;51.378;0.094;2024-01-30T13:13:54;8.70;74.70
26254;DHT22;53339;51.378;0.094;2024-01-30T13:16:22;8.70;75.00
26254;DHT22;53339;51.378;0.094;2024-01-30T13:18:50;8.70;74.70
26254;DHT22;53339;51.378;0.094;2024-01-30T13:21:17;8.70;74.60
26254;DHT22;53339;51.378;0.094;2024-01-30T13:23:45;8.70;74.60
26254;DHT22;53339;51.378;0.094;2024-01-30T13:26:12;8.70;74.70
26254;DHT22;53339;51.378;0.094;2024-01-30T13:28:40;8.80;74.70
26254;DHT22;53339;51.378;0.094;2024-01-30T13:31:08;8.80;74.40
26254;DHT22;53339;51.378;0.094;2024-01-30T13:33:35;8.90;74.40
26254;DHT22;53339;51.378;0.094;2024-01-30T13:36:03;8.90;74.20
26254;DHT22;53339;51.378;0.094;2024-01-30T13:38:31;8.90;74.30
26254;DHT22;53339;51.378;0.094;2024-01-30T13:40:59;8.90;74.30
26254;DHT22;53339;51.378;0.094;2024-01-30T13:43:27;8.90;74.30
26254;DHT22;53339;51.378;0.094;2024-01-30T13:45:55;8.90;74.20
26254;DHT22;53339;51.378;0.094;2024-01-30T13:48:22;8.90;74.40
26254;DHT22;53339;51.378;0.094;2024-01-30T13:50:50;8.90;74.60
26254;DHT22;53339;51.378;0.094;2024-01-30T13:53:18;9.00;74.40
26254;DHT22;53339;51.378;0.094;2024-01-30T13:55:46;8.90;74.40
26254;DHT22;53339;51.378;0.094;2024-01-30T13:58:14;9.00;74.30
26254;DHT22;53339;51.378;0.094;2024-01-30T14:00:42;9.00;74.20
26254;DHT22;53339;51.378;0.094;2024-01-30T14:03:11;9.00;74.10
26254;DHT22;53339;51.378;0.094;2024-01-30T14:05:39;9.00;74.00
26254;DHT22;53339;51.378;0.094;2024-01-30T14:08:07;8.90;73.90
26254;DHT22;53339;51.378;0.094;2024-01-30T14:10:36;8.80;74.00
26254;DHT22;53339;51.378;0.094;2024-01-30T14:13:04;8.80;74.20
26254;DHT22;53339;51.378;0.094;2024-01-30T14:15:31;8.70;74.10
26254;DHT22;53339;51.378;0.094;2024-01-30T14:18:00;8.60;73.90
26254;DHT22;53339;51.378;0.094;2024-01-30T14:20:28;8.60;74.40
26254;DHT22;53339;51.378;0.094;2024-01-30T14:22:56;8.60;74.50
26254;DHT22;53339;51.378;0.094;2024-01-30T14:25:24;8.60;74.40
26254;DHT22;53339;51.378;0.094;2024-01-30T14:27:52;8.60;74.40
26254;DHT22;53339;51.378;0.094;2024-01-30T14:30:19;8.60;74.70
26254;DHT22;53339;51.378;0.094;2024-01-30T14:32:47;8.70;74.60
26254;DHT22;53339;51.378;0.094;2024-01-30T14:35:16;8.80;74.30
26254;DHT22;53339;51.378;0.094;2024-01-30T14:37:44;8.80;73.90
26254;DHT22;53339;51.378;0.094;2024-01-30T14:40:12;8.80;73.90
26254;DHT22;53339;51.378;0.094;2024-01-30T14:42:40;8.80;73.90
26254;DHT22;53339;51.378;0.094;2024-01-30T14:45:07;8.80;73.60
26254;DHT22;53339;51.378;0.094;2024-01-30T14:47:35;8.90;73.40
26254;DHT22;53339;51.378;0.094;2024-01-30T14:50:04;8.80;73.50
26254;DHT22;53339;51.378;0.094;2024-01-30T14:52:35;8.90;73.80
26254;DHT22;53339;51.378;0.094;2024-01-30T14:55:03;8.80;73.60
26254;DHT22;53339;51.378;0.094;2024-01-30T14:57:31;8.80;73.50
26254;DHT22;53339;51.378;0.094;2024-01-30T14:59:58;8.70;73.40
26254;DHT22;53339;51.378;0.094;2024-01-30T15:02:26;8.70;73.70
26254;DHT22;53339;51.378;0.094;2024-01-30T15:04:53;8.70;73.70
26254;DHT22;53339;51.378;0.094;2024-01-30T15:07:21;8.60;73.60
26254;DHT22;53339;51.378;0.094;2024-01-30T15:09:54;8.60;73.70
26254;DHT22;53339;51.378;0.094;2024-01-30T15:12:22;8.60;74.10
26254;DHT22;53339;51.378;0.094;2024-01-30T15:14:49;8.60;74.30
26254;DHT22;53339;51.378;0.094;2024-01-30T15:17:18;8.50;74.10
26254;DHT22;53339;51.378;0.094;2024-01-30T15:19:48;8.50;74.00
26254;DHT22;53339;51.378;0.094;2024-01-30T15:22:18;8.50;74.40
26254;DHT22;53339;51.378;0.094;2024-01-30T15:24:45;8.50;74.70
26254;DHT22;53339;51.378;0.094;2024-01-30T15:27:13;8.50;74.50
26254;DHT22;53339;51.378;0.094;2024-01-30T15:29:41;8.40;74.40
26254;DHT22;53339;51.378;0.094;2024-01-30T15:32:08;8.40;74.40
26254;DHT22;53339;51.378;0.094;2024-01-30T15:34:36;8.50;74.70
26254;DHT22;53339;51.378;0.094;2024-01-30T15:37:04;8.40;74.70
26254;DHT22;53339;51.378;0.094;2024-01-30T15:39:32;8.30;74.70
26254;DHT22;53339;51.378;0.094;2024-01-30T15:42:00;8.40;74.90
26254;DHT22;53339;51.378;0.094;2024-01-30T15:44:28;8.40;75.20
26254;DHT22;53339;51.378;0.094;2024-01-30T15:46:58;8.30;75.30
26254;DHT22;53339;51.378;0.094;2024-01-30T15:49:25;8.20;75.00
26254;DHT22;53339;51.378;0.094;2024-01-30T15:51:53;8.20;75.50
26254;DHT22;53339;51.378;0.094;2024-01-30T15:54:21;8.10;76.00